createdAt,value
2022-10-29T00:00:00.591Z,1001.60
2022-10-29T00:01:00.603Z,1001.62
2022-10-29T00:02:00.655Z,1001.59
2022-10-29T00:03:00.613Z,1001.63
2022-10-29T00:04:00.580Z,1001.64
2022-10-29T00:05:00.544Z,1001.57
2022-10-29T00:06:00.574Z,1001.65
2022-10-29T00:07:00.536Z,1001.62
2022-10-29T00:08:00.518Z,1001.62
2022-10-29T00:09:00.513Z,1001.67
2022-10-29T00:10:00.516Z,1001.67
2022-10-29T00:11:00.522Z,1001.64
2022-10-29T00:12:00.494Z,1001.66
2022-10-29T00:13:00.486Z,1001.60
2022-10-29T00:14:00.476Z,1001.63
2022-10-29T00:15:00.462Z,1001.62
2022-10-29T00:16:00.489Z,1001.69
2022-10-29T00:17:00.446Z,1001.62
2022-10-29T00:18:00.441Z,1001.59
2022-10-29T00:19:00.437Z,1001.57
2022-10-29T00:20:00.499Z,1001.50
2022-10-29T00:21:00.445Z,1001.54
2022-10-29T00:22:00.414Z,1001.51
2022-10-29T00:23:00.408Z,1001.51
2022-10-29T00:24:00.401Z,1001.56
2022-10-29T00:25:00.381Z,1001.50
2022-10-29T00:26:00.421Z,1001.50
2022-10-29T00:27:00.379Z,1001.58
2022-10-29T00:28:00.369Z,1001.57
2022-10-29T00:29:00.361Z,1001.60
2022-10-29T00:30:00.352Z,1001.54
2022-10-29T00:31:00.368Z,1001.64
2022-10-29T00:32:00.364Z,1001.63
2022-10-29T00:33:00.395Z,1001.59
2022-10-29T00:34:00.314Z,1001.61
2022-10-29T00:35:00.313Z,1001.59
2022-10-29T00:36:00.323Z,1001.64
2022-10-29T00:37:00.298Z,1001.69
2022-10-29T00:38:00.283Z,1001.61
2022-10-29T00:39:00.279Z,1001.72
2022-10-29T00:40:00.273Z,1001.75
2022-10-29T00:41:00.284Z,1001.63
2022-10-29T00:42:00.243Z,1001.74
2022-10-29T00:43:01.277Z,1001.68
2022-10-29T00:44:00.241Z,1001.65
2022-10-29T00:45:00.231Z,1001.66
2022-10-29T00:46:00.245Z,1001.62
2022-10-29T00:47:00.215Z,1001.62
2022-10-29T00:48:00.209Z,1001.62
2022-10-29T00:49:00.202Z,1001.66
2022-10-29T00:50:00.192Z,1001.66
2022-10-29T00:51:00.208Z,1001.73
2022-10-29T00:52:00.169Z,1001.70
2022-10-29T00:53:00.165Z,1001.75
2022-10-29T00:54:00.152Z,1001.82
2022-10-29T00:55:00.146Z,1001.77
2022-10-29T00:56:00.169Z,1001.72
2022-10-29T00:57:00.136Z,1001.75
2022-10-29T00:58:00.126Z,1001.81
2022-10-29T00:59:00.116Z,1001.67
2022-10-29T01:00:00.130Z,1001.78
2022-10-29T01:01:00.144Z,1001.74
2022-10-29T01:02:00.242Z,1001.81
2022-10-29T01:03:00.301Z,1001.71
2022-10-29T01:04:00.104Z,1001.70
2022-10-29T01:05:00.089Z,1001.65
2022-10-29T01:06:00.089Z,1001.70
2022-10-29T01:07:01.051Z,1001.64
2022-10-29T01:08:00.052Z,1001.66
2022-10-29T01:09:00.041Z,1001.67
2022-10-29T01:10:00.063Z,1001.70
2022-10-29T01:11:00.019Z,1001.70
2022-10-29T01:12:00.023Z,1001.74
2022-10-29T01:13:00.010Z,1001.69
2022-10-29T01:13:59.997Z,1001.77
2022-10-29T01:15:00.029Z,1001.79
2022-10-29T01:15:59.988Z,1001.72
2022-10-29T01:16:59.982Z,1001.74
2022-10-29T01:17:59.967Z,1001.72
2022-10-29T01:19:00.009Z,1001.76
2022-10-29T01:19:59.975Z,1001.70
2022-10-29T01:20:59.975Z,1001.67
2022-10-29T01:21:59.937Z,1001.77
2022-10-29T01:22:59.936Z,1001.71
2022-10-29T01:23:59.920Z,1001.72
2022-10-29T01:24:59.916Z,1001.70
2022-10-29T01:25:59.931Z,1001.81
2022-10-29T01:26:59.898Z,1001.85
2022-10-29T01:27:59.945Z,1001.78
2022-10-29T01:28:59.889Z,1001.81
2022-10-29T01:29:59.878Z,1001.78
2022-10-29T01:30:59.904Z,1001.72
2022-10-29T01:31:59.865Z,1001.71
2022-10-29T01:32:59.853Z,1001.71
2022-10-29T01:33:59.853Z,1001.70
2022-10-29T01:34:59.838Z,1001.72
2022-10-29T01:35:59.859Z,1001.76
2022-10-29T01:36:59.824Z,1001.72
2022-10-29T01:37:59.820Z,1001.68
2022-10-29T01:38:59.813Z,1001.61
2022-10-29T01:39:59.802Z,1001.57
2022-10-29T01:40:59.832Z,1001.63
2022-10-29T01:41:59.791Z,1001.59
2022-10-29T01:43:32.657Z,1001.64
2022-10-29T01:43:59.778Z,1001.65
2022-10-29T01:44:59.772Z,1001.64
2022-10-29T01:45:59.780Z,1001.54
2022-10-29T01:46:59.773Z,1001.59
2022-10-29T01:48:00.743Z,1001.58
2022-10-29T01:48:59.735Z,1001.54
2022-10-29T01:49:59.731Z,1001.52
2022-10-29T01:50:59.745Z,1001.53
2022-10-29T01:51:59.713Z,1001.57
2022-10-29T01:52:59.705Z,1001.55
2022-10-29T01:53:59.690Z,1001.59
2022-10-29T01:54:59.687Z,1001.60
2022-10-29T01:55:59.718Z,1001.57
2022-10-29T01:56:59.665Z,1001.59
2022-10-29T01:57:59.852Z,1001.53
2022-10-29T01:58:59.656Z,1001.55
2022-10-29T01:59:59.646Z,1001.52
2022-10-29T02:00:59.701Z,1001.53
2022-10-29T02:01:59.675Z,1001.53
2022-10-29T02:03:00.046Z,1001.46
2022-10-29T02:03:59.622Z,1001.51
2022-10-29T02:04:59.648Z,1001.47
2022-10-29T02:05:59.600Z,1001.49
2022-10-29T02:06:59.620Z,1001.41
2022-10-29T02:07:59.582Z,1001.42
2022-10-29T02:08:59.577Z,1001.34
2022-10-29T02:09:59.580Z,1001.32
2022-10-29T02:10:59.564Z,1001.34
2022-10-29T02:11:59.585Z,1001.25
2022-10-29T02:12:59.717Z,1001.29
2022-10-29T02:13:59.544Z,1001.31
2022-10-29T02:14:59.525Z,1001.25
2022-10-29T02:15:59.533Z,1001.34
2022-10-29T02:16:59.551Z,1001.29
2022-10-29T02:17:59.498Z,1001.32
2022-10-29T02:18:59.497Z,1001.34
2022-10-29T02:19:59.492Z,1001.40
2022-10-29T02:20:59.486Z,1001.34
2022-10-29T02:21:59.500Z,1001.34
2022-10-29T02:22:59.476Z,1001.35
2022-10-29T02:23:59.471Z,1001.37
2022-10-29T02:24:59.480Z,1001.36
2022-10-29T02:25:59.441Z,1001.40
2022-10-29T02:26:59.475Z,1001.39
2022-10-29T02:27:59.482Z,1001.31
2022-10-29T02:28:59.429Z,1001.33
2022-10-29T02:29:59.427Z,1001.37
2022-10-29T02:30:59.421Z,1001.31
2022-10-29T02:31:59.425Z,1001.28
2022-10-29T02:32:59.735Z,1001.35
2022-10-29T02:33:59.464Z,1001.41
2022-10-29T02:34:59.381Z,1001.41
2022-10-29T02:35:59.372Z,1001.41
2022-10-29T02:36:59.391Z,1001.43
2022-10-29T02:37:59.358Z,1001.38
2022-10-29T02:38:59.356Z,1001.46
2022-10-29T02:39:59.339Z,1001.39
2022-10-29T02:40:59.353Z,1001.44
2022-10-29T02:41:59.340Z,1001.34
2022-10-29T02:42:59.486Z,1001.33
2022-10-29T02:43:59.296Z,1001.40
2022-10-29T02:44:59.344Z,1001.48
2022-10-29T02:45:59.342Z,1001.32
2022-10-29T02:46:59.309Z,1001.34
2022-10-29T02:47:59.562Z,1001.33
2022-10-29T02:48:59.265Z,1001.34
2022-10-29T02:49:59.251Z,1001.33
2022-10-29T02:50:59.258Z,1001.23
2022-10-29T02:51:59.269Z,1001.38
2022-10-29T02:52:59.240Z,1001.29
2022-10-29T02:53:59.226Z,1001.30
2022-10-29T02:54:59.222Z,1001.27
2022-10-29T02:55:59.216Z,1001.30
2022-10-29T02:56:59.235Z,1001.27
2022-10-29T02:57:59.249Z,1001.21
2022-10-29T02:58:59.218Z,1001.25
2022-10-29T02:59:59.185Z,1001.27
2022-10-29T03:00:59.179Z,1001.26
2022-10-29T03:01:59.294Z,1001.26
2022-10-29T03:02:59.520Z,1001.36
2022-10-29T03:03:59.145Z,1001.36
2022-10-29T03:04:59.144Z,1001.33
2022-10-29T03:05:59.134Z,1001.37
2022-10-29T03:06:59.147Z,1001.36
2022-10-29T03:07:59.116Z,1001.44
2022-10-29T03:08:59.117Z,1001.44
2022-10-29T03:09:59.115Z,1001.43
2022-10-29T03:10:59.083Z,1001.34
2022-10-29T03:11:59.114Z,1001.36
2022-10-29T03:12:59.071Z,1001.30
2022-10-29T03:13:59.067Z,1001.38
2022-10-29T03:14:59.068Z,1001.37
2022-10-29T03:15:59.052Z,1001.38
2022-10-29T03:16:59.042Z,1001.39
2022-10-29T03:17:59.162Z,1001.45
2022-10-29T03:18:59.030Z,1001.45
2022-10-29T03:19:59.016Z,1001.47
2022-10-29T03:20:59.013Z,1001.53
2022-10-29T03:21:59.009Z,1001.53
2022-10-29T03:22:59.023Z,1001.57
2022-10-29T03:23:59.012Z,1001.56
2022-10-29T03:24:58.982Z,1001.60
2022-10-29T03:25:58.967Z,1001.56
2022-10-29T03:26:58.966Z,1001.63
2022-10-29T03:27:59.118Z,1001.62
2022-10-29T03:28:58.954Z,1001.53
2022-10-29T03:29:58.940Z,1001.52
2022-10-29T03:30:58.938Z,1001.52
2022-10-29T03:31:58.930Z,1001.50
2022-10-29T03:32:59.311Z,1001.49
2022-10-29T03:33:58.910Z,1001.46
2022-10-29T03:35:00.004Z,1001.41
2022-10-29T03:35:59.975Z,1001.40
2022-10-29T03:36:58.898Z,1001.42
2022-10-29T03:37:58.925Z,1001.41
2022-10-29T03:38:58.868Z,1001.42
2022-10-29T03:39:58.869Z,1001.38
2022-10-29T03:40:58.852Z,1001.42
2022-10-29T03:41:59.849Z,1001.34
2022-10-29T03:42:59.137Z,1001.34
2022-10-29T03:43:59.836Z,1001.41
2022-10-29T03:44:58.826Z,1001.36
2022-10-29T03:45:58.835Z,1001.32
2022-10-29T03:46:58.813Z,1001.31
2022-10-29T03:47:59.023Z,1001.26
2022-10-29T03:48:58.789Z,1001.28
2022-10-29T03:49:58.796Z,1001.28
2022-10-29T03:50:58.807Z,1001.26
2022-10-29T03:51:59.777Z,1001.30
2022-10-29T03:52:58.819Z,1001.28
2022-10-29T03:53:58.759Z,1001.27
2022-10-29T03:54:58.750Z,1001.27
2022-10-29T03:55:58.741Z,1001.27
2022-10-29T03:56:58.731Z,1001.29
2022-10-29T03:57:59.052Z,1001.23
2022-10-29T03:58:58.776Z,1001.26
2022-10-29T03:59:58.711Z,1001.32
2022-10-29T04:00:58.706Z,1001.34
2022-10-29T04:01:58.757Z,1001.32
2022-10-29T04:02:59.269Z,1001.30
2022-10-29T04:03:58.676Z,1001.32
2022-10-29T04:04:58.713Z,1001.38
2022-10-29T04:05:58.658Z,1001.39
2022-10-29T04:06:58.672Z,1001.41
2022-10-29T04:07:58.668Z,1001.40
2022-10-29T04:08:58.622Z,1001.51
2022-10-29T04:09:59.622Z,1001.52
2022-10-29T04:10:58.615Z,1001.51
2022-10-29T04:11:58.612Z,1001.53
2022-10-29T04:12:58.962Z,1001.53
2022-10-29T04:13:58.593Z,1001.51
2022-10-29T04:14:58.586Z,1001.45
2022-10-29T04:15:58.573Z,1001.43
2022-10-29T04:16:58.582Z,1001.47
2022-10-29T04:17:59.007Z,1001.44
2022-10-29T04:18:58.552Z,1001.43
2022-10-29T04:19:58.543Z,1001.45
2022-10-29T04:27:21.344Z,1001.43
2022-10-29T04:29:00.518Z,1001.39
2022-10-29T04:29:58.517Z,1001.37
2022-10-29T04:30:58.450Z,1001.44
2022-10-29T04:31:59.454Z,1001.48
2022-10-29T04:32:58.857Z,1001.40
2022-10-29T04:33:58.445Z,1001.43
2022-10-29T04:34:58.434Z,1001.37
2022-10-29T04:35:58.434Z,1001.44
2022-10-29T04:36:58.427Z,1001.46
2022-10-29T04:37:58.443Z,1001.61
2022-10-29T04:38:58.415Z,1001.55
2022-10-29T04:39:58.405Z,1001.55
2022-10-29T04:40:58.393Z,1001.60
2022-10-29T04:41:58.378Z,1001.58
2022-10-29T04:42:58.664Z,1001.63
2022-10-29T04:43:58.370Z,1001.66
2022-10-29T04:44:58.352Z,1001.56
2022-10-29T04:45:58.343Z,1001.54
2022-10-29T04:46:58.356Z,1001.56
2022-10-29T04:47:58.673Z,1001.62
2022-10-29T04:48:58.417Z,1001.58
2022-10-29T04:49:58.318Z,1001.59
2022-10-29T04:50:58.316Z,1001.50
2022-10-29T04:51:58.312Z,1001.64
2022-10-29T04:52:58.286Z,1001.62
2022-10-29T04:53:59.315Z,1001.55
2022-10-29T04:54:58.279Z,1001.60
2022-10-29T04:55:58.271Z,1001.58
2022-10-29T04:56:58.263Z,1001.64
2022-10-29T04:57:58.628Z,1001.58
2022-10-29T04:58:58.282Z,1001.59
2022-10-29T04:59:58.230Z,1001.60
2022-10-29T05:00:59.314Z,1001.67
2022-10-29T05:01:58.223Z,1001.68
2022-10-29T05:02:58.648Z,1001.59
2022-10-29T05:04:00.098Z,1001.68
2022-10-29T05:04:58.200Z,1001.64
2022-10-29T05:05:58.189Z,1001.64
2022-10-29T05:06:58.181Z,1001.66
2022-10-29T05:07:58.177Z,1001.65
2022-10-29T05:08:58.191Z,1001.65
2022-10-29T05:09:58.164Z,1001.58
2022-10-29T05:10:58.149Z,1001.58
2022-10-29T05:11:58.141Z,1001.64
2022-10-29T05:12:58.325Z,1001.52
2022-10-29T05:13:58.157Z,1001.55
2022-10-29T05:14:58.123Z,1001.52
2022-10-29T05:15:58.106Z,1001.55
2022-10-29T05:16:58.181Z,1001.47
2022-10-29T05:17:58.289Z,1001.38
2022-10-29T05:18:58.108Z,1001.41
2022-10-29T05:19:58.083Z,1001.46
2022-10-29T05:20:58.069Z,1001.44
2022-10-29T05:21:58.062Z,1001.45
2022-10-29T05:22:58.068Z,1001.43
2022-10-29T05:23:58.070Z,1001.49
2022-10-29T05:24:58.038Z,1001.45
2022-10-29T05:25:58.028Z,1001.48
2022-10-29T05:26:58.033Z,1001.46
2022-10-29T05:27:58.232Z,1001.42
2022-10-29T05:28:58.033Z,1001.45
2022-10-29T05:29:57.996Z,1001.35
2022-10-29T05:30:57.990Z,1001.44
2022-10-29T05:31:57.986Z,1001.44
2022-10-29T05:32:58.378Z,1001.41
2022-10-29T05:33:57.990Z,1001.38
2022-10-29T05:34:57.965Z,1001.40
2022-10-29T05:35:57.951Z,1001.37
2022-10-29T05:36:57.947Z,1001.36
2022-10-29T05:37:57.939Z,1001.38
2022-10-29T05:38:57.953Z,1001.34
2022-10-29T05:39:57.922Z,1001.34
2022-10-29T05:40:57.924Z,1001.32
2022-10-29T05:41:57.916Z,1001.40
2022-10-29T05:42:58.277Z,1001.35
2022-10-29T05:43:58.916Z,1001.31
2022-10-29T05:44:57.892Z,1001.30
2022-10-29T05:45:57.880Z,1001.30
2022-10-29T05:46:57.873Z,1001.26
2022-10-29T05:47:57.918Z,1001.28
2022-10-29T05:48:57.882Z,1001.25
2022-10-29T05:49:57.851Z,1001.29
2022-10-29T05:50:57.839Z,1001.29
2022-10-29T05:51:57.835Z,1001.25
2022-10-29T05:52:58.316Z,1001.17
2022-10-29T05:53:57.846Z,1001.22
2022-10-29T05:54:57.814Z,1001.26
2022-10-29T05:55:57.810Z,1001.22
2022-10-29T05:56:57.802Z,1001.17
2022-10-29T05:57:57.817Z,1001.24
2022-10-29T05:58:57.809Z,1001.16
2022-10-29T05:59:57.777Z,1001.20
2022-10-29T06:00:57.776Z,1001.20
2022-10-29T06:01:57.883Z,1001.23
2022-10-29T06:02:58.155Z,1001.23
2022-10-29T06:03:57.780Z,1001.28
2022-10-29T06:04:57.743Z,1001.31
2022-10-29T06:05:57.741Z,1001.29
2022-10-29T06:06:57.770Z,1001.29
2022-10-29T06:07:57.913Z,1001.22
2022-10-29T06:08:57.731Z,1001.25
2022-10-29T06:09:57.695Z,1001.20
2022-10-29T06:10:57.690Z,1001.28
2022-10-29T06:11:57.677Z,1001.29
2022-10-29T06:12:57.677Z,1001.34
2022-10-29T06:13:57.696Z,1001.38
2022-10-29T06:14:57.668Z,1001.44
2022-10-29T06:15:57.649Z,1001.41
2022-10-29T06:16:57.641Z,1001.40
2022-10-29T06:17:58.116Z,1001.32
2022-10-29T06:18:57.669Z,1001.33
2022-10-29T06:19:57.630Z,1001.36
2022-10-29T06:20:57.607Z,1001.37
2022-10-29T06:22:00.323Z,1001.38
2022-10-29T06:22:58.097Z,1001.39
2022-10-29T06:23:57.620Z,1001.41
2022-10-29T06:24:57.580Z,1001.38
2022-10-29T06:25:57.577Z,1001.33
2022-10-29T06:26:57.559Z,1001.36
2022-10-29T06:27:58.560Z,1001.39
2022-10-29T06:28:57.582Z,1001.39
2022-10-29T06:29:57.549Z,1001.39
2022-10-29T06:30:57.545Z,1001.42
2022-10-29T06:31:57.545Z,1001.46
2022-10-29T06:32:57.864Z,1001.52
2022-10-29T06:33:57.548Z,1001.54
2022-10-29T06:34:57.504Z,1001.49
2022-10-29T06:35:57.501Z,1001.48
2022-10-29T06:36:57.496Z,1001.43
2022-10-29T06:37:57.766Z,1001.41
2022-10-29T06:38:57.500Z,1001.38
2022-10-29T06:39:57.469Z,1001.46
2022-10-29T06:40:57.460Z,1001.40
2022-10-29T06:41:57.456Z,1001.51
2022-10-29T06:42:57.448Z,1001.49
2022-10-29T06:43:57.468Z,1001.49
2022-10-29T06:44:57.443Z,1001.42
2022-10-29T06:45:57.429Z,1001.32
2022-10-29T06:46:57.416Z,1001.32
2022-10-29T06:47:57.865Z,1001.38
2022-10-29T06:48:57.429Z,1001.42
2022-10-29T06:49:57.413Z,1001.44
2022-10-29T06:50:57.390Z,1001.46
2022-10-29T06:51:57.386Z,1001.44
2022-10-29T06:52:57.907Z,1001.49
2022-10-29T06:53:57.396Z,1001.44
2022-10-29T06:54:57.361Z,1001.54
2022-10-29T06:55:57.350Z,1001.56
2022-10-29T06:56:57.344Z,1001.49
2022-10-29T06:57:57.339Z,1001.49
2022-10-29T06:58:57.388Z,1001.45
2022-10-29T06:59:57.324Z,1001.37
2022-10-29T07:01:57.341Z,1001.33
2022-10-29T07:02:57.814Z,1001.44
2022-10-29T07:03:57.320Z,1001.43
2022-10-29T07:04:57.286Z,1001.39
2022-10-29T07:05:57.276Z,1001.34
2022-10-29T07:06:57.264Z,1001.39
2022-10-29T07:07:57.691Z,1001.42
2022-10-29T07:08:57.278Z,1001.39
2022-10-29T07:09:57.250Z,1001.35
2022-10-29T07:10:57.240Z,1001.26
2022-10-29T07:11:57.223Z,1001.34
2022-10-29T07:12:57.222Z,1001.33
2022-10-29T07:13:57.206Z,1001.36
2022-10-29T07:14:57.250Z,1001.38
2022-10-29T07:15:57.196Z,1001.37
2022-10-29T07:16:57.185Z,1001.37
2022-10-29T07:17:57.662Z,1001.37
2022-10-29T07:18:57.173Z,1001.40
2022-10-29T07:19:57.192Z,1001.35
2022-10-29T07:20:57.154Z,1001.40
2022-10-29T07:21:57.156Z,1001.38
2022-10-29T07:22:57.139Z,1001.36
2022-10-29T07:23:57.206Z,1001.32
2022-10-29T07:25:00.214Z,1001.32
2022-10-29T07:25:58.120Z,1001.34
2022-10-29T07:26:57.119Z,1001.31
2022-10-29T07:27:57.493Z,1001.24
2022-10-29T07:28:57.127Z,1001.21
2022-10-29T07:29:57.117Z,1001.23
2022-10-29T07:30:57.092Z,1001.23
2022-10-29T07:31:57.078Z,1001.21
2022-10-29T07:32:57.066Z,1001.13
2022-10-29T07:33:57.058Z,1001.14
2022-10-29T07:34:57.074Z,1001.26
2022-10-29T07:35:57.087Z,1001.20
2022-10-29T07:36:57.032Z,1001.24
2022-10-29T07:37:57.656Z,1001.22
2022-10-29T07:38:57.032Z,1001.20
2022-10-29T07:39:57.048Z,1001.20
2022-10-29T07:40:57.051Z,1001.24
2022-10-29T07:41:59.213Z,1001.17
2022-10-29T07:43:31.264Z,1001.26
2022-10-29T07:43:56.980Z,1001.14
2022-10-29T07:44:56.991Z,1001.14
2022-10-29T07:45:56.966Z,1001.11
2022-10-29T07:46:56.956Z,1001.17
2022-10-29T07:48:02.210Z,1001.07
2022-10-29T07:48:58.941Z,1001.13
2022-10-29T07:49:56.968Z,1001.21
2022-10-29T07:50:56.926Z,1001.25
2022-10-29T07:51:56.915Z,1001.23
2022-10-29T07:52:57.247Z,1001.21
2022-10-29T07:53:56.896Z,1001.17
2022-10-29T07:54:56.918Z,1001.21
2022-10-29T07:55:56.888Z,1001.32
2022-10-29T07:56:56.875Z,1001.33
2022-10-29T07:57:57.382Z,1001.37
2022-10-29T07:58:56.857Z,1001.41
2022-10-29T07:59:56.872Z,1001.44
2022-10-29T08:00:56.934Z,1001.43
2022-10-29T08:01:56.907Z,1001.50
2022-10-29T08:02:56.845Z,1001.46
2022-10-29T08:03:56.814Z,1001.44
2022-10-29T08:04:56.835Z,1001.45
2022-10-29T08:05:56.931Z,1001.46
2022-10-29T08:06:56.794Z,1001.42
2022-10-29T08:07:57.196Z,1001.49
2022-10-29T08:08:56.783Z,1001.42
2022-10-29T08:09:56.798Z,1001.44
2022-10-29T08:10:56.765Z,1001.47
2022-10-29T08:11:56.762Z,1001.52
2022-10-29T08:12:57.167Z,1001.49
2022-10-29T08:13:56.739Z,1001.41
2022-10-29T08:14:56.764Z,1001.43
2022-10-29T08:15:56.725Z,1001.46
2022-10-29T08:16:56.716Z,1001.43
2022-10-29T08:17:56.716Z,1001.45
2022-10-29T08:18:56.800Z,1001.48
2022-10-29T08:19:56.723Z,1001.49
2022-10-29T08:20:56.688Z,1001.46
2022-10-29T08:21:56.682Z,1001.43
2022-10-29T08:22:56.837Z,1001.44
2022-10-29T08:23:56.665Z,1001.42
2022-10-29T08:24:56.670Z,1001.33
2022-10-29T08:25:57.671Z,1001.41
2022-10-29T08:26:56.645Z,1001.35
2022-10-29T08:27:56.646Z,1001.34
2022-10-29T08:28:56.609Z,1001.34
2022-10-29T08:29:57.655Z,1001.38
2022-10-29T08:30:56.610Z,1001.35
2022-10-29T08:31:56.600Z,1001.30
2022-10-29T08:32:56.806Z,1001.23
2022-10-29T08:33:56.590Z,1001.18
2022-10-29T08:34:56.586Z,1001.20
2022-10-29T08:35:56.592Z,1001.18
2022-10-29T08:36:56.569Z,1001.20
2022-10-29T08:37:56.555Z,1001.15
2022-10-29T08:38:56.543Z,1001.20
2022-10-29T08:39:56.536Z,1001.08
2022-10-29T08:40:56.563Z,1001.12
2022-10-29T08:41:56.529Z,1001.14
2022-10-29T08:42:56.829Z,1001.11
2022-10-29T08:43:56.591Z,1001.16
2022-10-29T08:44:56.498Z,1001.18
2022-10-29T08:45:56.518Z,1001.20
2022-10-29T08:46:56.482Z,1001.24
2022-10-29T08:47:56.740Z,1001.21
2022-10-29T08:48:56.465Z,1001.23
2022-10-29T08:49:56.449Z,1001.17
2022-10-29T08:50:56.484Z,1001.27
2022-10-29T08:51:56.446Z,1001.21
2022-10-29T08:53:19.458Z,1001.17
2022-10-29T08:54:58.413Z,1001.22
2022-10-29T08:55:56.444Z,1001.04
2022-10-29T08:56:56.405Z,1001.00
2022-10-29T08:57:56.644Z,1001.00
2022-10-29T08:58:56.383Z,1001.02
2022-10-29T08:59:56.438Z,1001.01
2022-10-29T09:00:56.449Z,1001.08
2022-10-29T09:01:56.478Z,1001.09
2022-10-29T09:02:56.705Z,1001.17
2022-10-29T09:03:56.343Z,1001.22
2022-10-29T09:04:56.345Z,1001.19
2022-10-29T09:05:56.361Z,1001.18
2022-10-29T09:06:56.334Z,1001.23
2022-10-29T09:07:58.401Z,1001.28
2022-10-29T09:08:57.314Z,1001.24
2022-10-29T09:09:56.299Z,1001.32
2022-10-29T09:10:56.323Z,1001.33
2022-10-29T09:11:56.286Z,1001.27
2022-10-29T09:12:56.568Z,1001.33
2022-10-29T09:13:56.269Z,1001.29
2022-10-29T09:14:56.264Z,1001.30
2022-10-29T09:15:57.789Z,1001.31
2022-10-29T09:16:57.270Z,1001.29
2022-10-29T09:17:56.516Z,1001.31
2022-10-29T09:18:56.240Z,1001.19
2022-10-29T09:19:56.226Z,1001.33
2022-10-29T09:20:56.238Z,1001.34
2022-10-29T09:21:56.217Z,1001.31
2022-10-29T09:22:56.198Z,1001.33
2022-10-29T09:23:56.195Z,1001.33
2022-10-29T09:24:56.172Z,1001.31
2022-10-29T09:25:57.197Z,1001.32
2022-10-29T09:26:56.168Z,1001.30
2022-10-29T09:27:56.321Z,1001.27
2022-10-29T09:28:56.153Z,1001.29
2022-10-29T09:29:56.151Z,1001.31
2022-10-29T09:30:56.161Z,1001.20
2022-10-29T09:31:56.129Z,1001.30
2022-10-29T09:32:56.130Z,1001.25
2022-10-29T09:33:59.263Z,1001.33
2022-10-29T09:34:57.107Z,1001.33
2022-10-29T09:35:56.132Z,1001.32
2022-10-29T09:36:56.096Z,1001.37
2022-10-29T09:37:56.483Z,1001.44
2022-10-29T09:38:56.095Z,1001.45
2022-10-29T09:39:56.060Z,1001.46
2022-10-29T09:40:56.084Z,1001.42
2022-10-29T09:41:56.052Z,1001.49
2022-10-29T09:42:56.058Z,1001.43
2022-10-29T09:43:56.040Z,1001.43
2022-10-29T09:44:56.037Z,1001.38
2022-10-29T09:45:56.051Z,1001.41
2022-10-29T09:46:56.023Z,1001.41
2022-10-29T09:47:56.307Z,1001.32
2022-10-29T09:48:56.037Z,1001.34
2022-10-29T09:49:55.989Z,1001.41
2022-10-29T09:50:56.008Z,1001.40
2022-10-29T09:51:55.974Z,1001.35
2022-10-29T09:52:56.175Z,1001.41
2022-10-29T09:53:55.983Z,1001.34
2022-10-29T09:54:55.956Z,1001.43
2022-10-29T09:55:55.969Z,1001.38
2022-10-29T09:56:56.322Z,1001.38
2022-10-29T09:57:56.941Z,1001.40
2022-10-29T09:58:55.916Z,1001.43
2022-10-29T09:59:55.915Z,1001.42
2022-10-29T10:00:55.930Z,1001.33
2022-10-29T10:01:55.939Z,1001.36
2022-10-29T10:02:56.576Z,1001.33
2022-10-29T10:03:55.913Z,1001.39
2022-10-29T10:04:55.873Z,1001.33
2022-10-29T10:05:55.893Z,1001.38
2022-10-29T10:06:55.864Z,1001.30
2022-10-29T10:07:56.153Z,1001.32
2022-10-29T10:08:55.839Z,1001.38
2022-10-29T10:09:55.831Z,1001.38
2022-10-29T10:10:55.871Z,1001.37
2022-10-29T10:11:55.810Z,1001.38
2022-10-29T10:12:55.812Z,1001.37
2022-10-29T10:13:55.795Z,1001.35
2022-10-29T10:14:55.800Z,1001.33
2022-10-29T10:15:55.785Z,1001.25
2022-10-29T10:16:55.801Z,1001.19
2022-10-29T10:17:56.351Z,1001.27
2022-10-29T10:18:57.721Z,1001.16
2022-10-29T10:19:55.777Z,1001.14
2022-10-29T10:20:55.839Z,1001.10
2022-10-29T10:21:55.769Z,1001.09
2022-10-29T10:22:56.222Z,1001.12
2022-10-29T10:23:55.761Z,1001.09
2022-10-29T10:24:55.788Z,1001.10
2022-10-29T10:25:58.926Z,1001.09
2022-10-29T10:26:57.787Z,1001.02
2022-10-29T10:27:55.843Z,1001.05
2022-10-29T10:28:55.725Z,1001.00
2022-10-29T10:29:55.741Z,1001.01
2022-10-29T10:30:55.691Z,1000.93
2022-10-29T10:31:55.714Z,1000.89
2022-10-29T10:32:55.773Z,1000.90
2022-10-29T10:33:55.688Z,1000.89
2022-10-29T10:34:55.676Z,1000.90
2022-10-29T10:35:55.659Z,1000.86
2022-10-29T10:36:55.708Z,1000.85
2022-10-29T10:37:55.950Z,1000.85
2022-10-29T10:38:55.639Z,1000.81
2022-10-29T10:39:55.620Z,1000.86
2022-10-29T10:40:55.644Z,1000.87
2022-10-29T10:41:55.646Z,1000.84
2022-10-29T10:42:55.613Z,1000.78
2022-10-29T10:43:55.596Z,1000.83
2022-10-29T10:44:55.586Z,1000.79
2022-10-29T10:45:55.577Z,1000.83
2022-10-29T10:46:55.575Z,1000.76
2022-10-29T10:47:56.039Z,1000.73
2022-10-29T10:48:55.537Z,1000.75
2022-10-29T10:49:55.560Z,1000.77
2022-10-29T10:50:55.581Z,1000.66
2022-10-29T10:51:55.571Z,1000.60
2022-10-29T10:52:55.752Z,1000.68
2022-10-29T10:53:55.552Z,1000.65
2022-10-29T10:54:55.478Z,1000.61
2022-10-29T10:55:55.474Z,1000.70
2022-10-29T10:56:56.488Z,1000.68
2022-10-29T10:57:55.457Z,1000.66
2022-10-29T10:58:55.456Z,1000.64
2022-10-29T10:59:55.460Z,1000.68
2022-10-29T11:00:55.455Z,1000.68
2022-10-29T11:01:55.603Z,1000.67
2022-10-29T11:02:55.684Z,1000.65
2022-10-29T11:03:55.421Z,1000.65
2022-10-29T11:04:55.402Z,1000.61
2022-10-29T11:05:55.388Z,1000.62
2022-10-29T11:06:55.415Z,1000.67
2022-10-29T11:07:55.785Z,1000.63
2022-10-29T11:08:55.445Z,1000.68
2022-10-29T11:09:55.421Z,1000.66
2022-10-29T11:10:55.373Z,1000.66
2022-10-29T11:11:58.870Z,1000.55
2022-10-29T11:12:56.338Z,1000.53
2022-10-29T11:13:55.371Z,1000.54
2022-10-29T11:14:55.329Z,1000.52
2022-10-29T11:15:55.317Z,1000.57
2022-10-29T11:16:55.341Z,1000.59
2022-10-29T11:17:55.429Z,1000.58
2022-10-29T11:18:55.291Z,1000.64
2022-10-29T11:19:55.290Z,1000.58
2022-10-29T11:20:55.279Z,1000.55
2022-10-29T11:21:55.302Z,1000.49
2022-10-29T11:22:55.562Z,1000.58
2022-10-29T11:23:55.248Z,1000.52
2022-10-29T11:24:55.243Z,1000.53
2022-10-29T11:25:55.240Z,1000.55
2022-10-29T11:26:55.257Z,1000.51
2022-10-29T11:27:55.247Z,1000.46
2022-10-29T11:28:55.211Z,1000.51
2022-10-29T11:29:55.209Z,1000.48
2022-10-29T11:30:55.210Z,1000.45
2022-10-29T11:31:55.218Z,1000.46
2022-10-29T11:32:55.624Z,1000.40
2022-10-29T11:33:55.178Z,1000.40
2022-10-29T11:34:55.163Z,1000.42
2022-10-29T11:35:57.455Z,1000.37
2022-10-29T11:36:57.146Z,1000.45
2022-10-29T11:37:55.440Z,1000.47
2022-10-29T11:38:55.157Z,1000.44
2022-10-29T11:39:55.131Z,1000.41
2022-10-29T11:40:55.125Z,1000.42
2022-10-29T11:41:55.108Z,1000.45
2022-10-29T11:42:55.136Z,1000.35
2022-10-29T11:43:55.091Z,1000.29
2022-10-29T11:44:55.218Z,1000.36
2022-10-29T11:45:55.080Z,1000.35
2022-10-29T11:46:55.074Z,1000.34
2022-10-29T11:47:55.522Z,1000.31
2022-10-29T11:48:55.049Z,1000.36
2022-10-29T11:49:55.059Z,1000.36
2022-10-29T11:50:55.056Z,1000.35
2022-10-29T11:51:55.033Z,1000.30
2022-10-29T11:52:55.422Z,1000.34
2022-10-29T11:53:55.023Z,1000.29
2022-10-29T11:54:55.019Z,1000.30
2022-10-29T11:55:55.004Z,1000.26
2022-10-29T11:56:54.998Z,1000.20
2022-10-29T11:57:55.004Z,1000.17
2022-10-29T11:58:54.977Z,1000.20
2022-10-29T11:59:54.968Z,1000.21
2022-10-29T12:00:55.962Z,1000.17
2022-10-29T12:01:55.041Z,1000.18
2022-10-29T12:02:55.233Z,1000.21
2022-10-29T12:03:55.027Z,1000.12
2022-10-29T12:04:54.926Z,1000.19
2022-10-29T12:05:54.922Z,1000.09
2022-10-29T12:06:54.922Z,1000.13
2022-10-29T12:07:55.089Z,1000.12
2022-10-29T12:08:54.895Z,1000.09
2022-10-29T12:09:54.892Z,1000.13
2022-10-29T12:10:54.879Z,1000.05
2022-10-29T12:11:54.871Z,1000.11
2022-10-29T12:12:54.880Z,1000.10
2022-10-29T12:13:55.861Z,1000.05